Latest Observation

42 Stations

15 Minute Data | America/Los_Angeles
as of 5/4/26 9:01 AM PDT
Station Date Time Temp (°F) RH (%) Dew Pt (°F) Wind Spd (mph) Wind Dir (°) Wind Gust (mph) Latest Rain (In) Daily Rain (In) Daily Min Temp (°F) Daily Max Temp (°F) Daily Max Wind (mph)
Elk Mt. Farm 5/4/26 0900 54.9   0.5 - - - - - - - 47.4   0.6 54.9   0.5 -
Upper Lake 5/4/26 0900 52.6   0.9 84   4 48.1   2.0 3.5 WNW | 301 7.8   1.2 0.00 0.00 47.3   0.1 53.4   0.6 12.1   3.1
Scotts Valley 5/4/26 0900 53.9   0.8 80   4 48.0   2.2 1.1 W | 272 3.3   0.4 0.00 0.00 50.1   5.7 54.3   0.9 6.2   2.2
Scotts Valley-South (Bella Vista) 5/4/26 0900 53.3   0.6 75   3 45.5   1.5 1.7 W | 270 4.3   3.5 0.00 0.00 49.8   3.2 53.8   0.2 8.1   0.3
Kelseyville 5/4/26 0900 54.6   0.7 76   6 47.3   1.5 2.5 WSW | 253 6.1   2.6 0.00 0.00 50.7   3.4 55.1   0.8 8.8   5.3
Kelseyville Remote 5/4/26 0845 55.0   0.0 68   4 44.7   1.7 - - - 0.00 0.00 51.7   4.2 55.0   0.0 -
Kelseyville (Clark Drive) 5/4/26 0900 55.1   0.0 - - - - - 0.00 0.00 50.6   3.7 55.7   0.4 -
Kelsey Bench (Oaklea) 5/4/26 0900 53.6   0.6 75   7 46.0   1.7 0.0 N | 0 0.0   0.2 0.00 0.00 49.0   1.4 54.3   1.0 0.0   5.8
Smith Lane (Kelseyville-South) 5/4/26 0900 55.5   1.3 73   11 47.0   2.3 0.5 W | 265 4.9   2.2 0.00 0.00 50.7   3.6 55.7   1.4 7.1   1.1
Bell Hill-West 5/4/26 0900 54.9   1.2 82   10 49.5   2.0 1.3 NW | 323 4.1   4.4 0.00 0.00 50.7   4.1 55.4   1.4 7.8   1.3
High Valley Ridgeline (Brassfield) 5/4/26 0900 48.3   2.1 98   7 47.8   0.1 6.9 WSW | 251 11.8   3.7 0.00 0.00 47.1   2.6 48.7   5.9 12.5   4.4
Wight Way (Adobe Creek) 5/4/26 0900 56.4   1.5 67   9 45.8   2.0 1.4 NNW | 338 4.0   2.6 0.00 0.00 50.4   5.1 56.5   1.6 9.0   1.3
Ridgeline Top (Brassfield) 5/4/26 0900 49.6   2.2 - - - - - - - 47.1   2.9 50.0   4.4 -
Ridgeline Low (Brassfield) 5/4/26 0900 51.0   1.3 - - - - - - - 48.8   1.9 51.9   2.5 -
Long Valley (Shannon) 5/4/26 0845 57.0   2.7 82   15 51.7   2.0 1.1 WSW | 253 3.2   1.6 0.00 0.00 47.0   0.6 57.0   2.7 4.7   0.1
High Valley Winery 5/4/26 0900 53.1   1.4 81   2 47.5   2.0 7.3 SW | 234 13.0   4.6 0.00 0.00 44.3   1.1 53.5   2.1 13.0   4.6
Round Mtn Rd. 5/4/26 0745 51.1   0.1 - - - - - - - 45.5   2.8 51.2   0.1 -
Circle O 5/4/26 0900 54.1   3.2 - - - - - - - 45.7   1.2 54.8   3.0 -
Robertsbridge Vineyards 5/4/26 0900 53.6   0.5 76   4 46.4   1.8 - - - - - 48.8   3.4 54.1   0.2 -
Urgency Vineyard 5/4/26 0900 54.3   0.6 72   8 45.5   2.3 4.9 WSW | 240 9.3   4.8 0.00 0.00 48.8   3.8 55.0   1.3 9.4   4.4
Red Hills (Beckstoffer) 5/4/26 0900 53.1   0.8 76   9 45.7   3.9 - - - 0.00 0.00 49.0   6.6 54.4   0.2 -
Winters (Shannon) 5/4/26 0900 51.6   0.2 74   12 43.8   4.1 5.4 WNW | 295 9.1   3.4 0.00 0.00 48.3   5.3 52.4   0.4 11.7   6.1
Secret Pond (Shannon) 5/4/26 0900 51.1   0.8 74   13 43.1   3.5 5.0 NNW | 329 10.2   5.6 0.00 0.00 45.3   0.4 53.1   2.1 10.2   5.3
Rolling Knolls (Shannon) 5/4/26 0900 54.4   2.5 70   16 44.9   3.1 2.6 NW | 306 8.0   0.6 0.00 0.00 50.1   5.0 55.0   3.1 12.4   4.6
Lower Lake 5/4/26 0900 55.1   4.0 72   18 46.1   2.0 4.8 NNW | 327 9.0   1.4 0.00 0.00 49.0   0.1 57.4   5.7 10.9   2.3
Adamson Ranch 5/4/26 0900 56.7   4.7 70   23 47.1   3.1 1.9 N | 359 6.4   0.7 0.00 0.00 50.6   4.0 57.1   5.2 6.4   0.7
Middletown (Diamond D) 5/4/26 0900 57.1   4.5 72   19 48.3   1.9 0.0 N | 0 0.0   3.0 0.00 0.00 48.0   0.6 58.0   5.0 2.9   2.6
Middletown-West (Domaine Helena) 5/4/26 0900 58.0   4.7 70   20 48.2   2.2 2.9 SW | 219 4.9   0.0 0.00 0.00 47.2   3.6 58.1   4.7 9.3   4.3
Middletown-South 5/4/26 0900 57.4   3.6 63   18 45.1   3.3 1.7 WSW | 251 5.0   0.7 0.00 0.00 47.2   0.9 58.6   4.3 7.5   3.1
Jim Davis (Langtry) 5/4/26 0900 55.4   3.2 79   10 49.2   0.0 3.1 SW | 229 7.3   0.1 0.00 0.00 47.9   0.4 55.4   3.1 7.3   0.1
Napa Valley Basin 5/4/26 0900 53.9   0.7 86   2 50.0   0.2 1.6 SSE | 149 2.8   3.8 0.00 0.00 42.1   5.0 54.3   0.7 3.1   3.6
Lower Bohn 5/4/26 0900 55.3   2.5 82   8 50.0   0.0 0.8 ESE | 119 2.4   4.8 0.00 0.00 40.7   3.1 55.9   2.2 3.2   4.0
Upper Bohn-North 5/4/26 0900 54.2   0.2 79   8 48.0   2.4 1.0 W | 271 3.2   2.0 0.00 0.00 45.4   3.7 54.4   0.5 3.2   2.3
Snell Peak Blk#9 5/4/26 0900 53.1   0.2 86   2 49.0   0.3 0.8 S | 175 2.9   2.1 0.00 0.00 46.5   2.3 54.6   1.5 3.6   4.2
Coyote Lake West 5/4/26 0900 54.2   0.6 83   1 49.0   0.4 1.0 SE | 131 3.1   2.9 0.00 0.00 45.7   4.2 54.2   0.5 3.3   2.7
Coyote Lake Northeast 5/4/26 0845 53.2   0.2 84   4 48.6   1.5 - - - - - 46.2   3.5 53.3   0.2 -
Coyote Lake East 5/4/26 0845 53.6   0.7 89   5 50.5   0.8 - - - - - 44.0   5.3 53.6   0.7 -
Morgan Valley 5/4/26 0900 52.4   4.2 84   16 47.9   0.3 4.9 W | 274 8.7   2.6 0.00 0.00 47.3   0.0 52.5   7.5 9.9   2.2
Mine Pit North 5/4/26 0900 55.0   6.1 76   19 47.6   0.0 2.3 SSE | 153 6.3   5.2 - - 45.6   2.0 55.8   2.7 11.2   3.7
Mine Pit South 5/4/26 0845 51.4   3.2 83   17 46.5   1.7 3.8 SW | 226 6.3   1.5 0.00 0.00 46.4   0.7 52.3   1.4 7.8   0.7
Cow Mountain 5/4/26 0900 42.5   8.4 - - 6.1 W | 272 10.1   1.1 0.00 0.02 40.9   8.0 46.7   5.5 17.8   1.5
Ukiah-SE (Ruddick) 5/4/26 0900 54.4   0.6 73   2 46.1   1.4 4.0 NNW | 344 6.4   2.1 0.00 0.00 49.2   4.1 54.6   0.8 6.6   4.2
Max     58.0 98 51.7 7.3 - 13.0 0.00 0.02 51.7 58.6 17.8
Avg     53.7 78 47.3 2.8 - 5.9 0.00 - - - -
Min     42.5 63 43.1 0.0 - 0.0 0.00 0.00 40.7 46.7 0.0